Observation data for Post on 02/16/2017      Previous  Date  Next       Current Mesonet Observations  Soil Data  Daily Summary Page  Observations in Plain Language
KPT1 160600Z 24006KT 05/M01 A3012 RMK A01 T00501007  RH  067%=      5-min Rain = 0
KPT1 160605Z 23006KT 05/M01 A3012 RMK A01 T00511008  RH  066%=      5-min Rain = 0
KPT1 160610Z 23006KT 05/M01 A3012 RMK A01 T00531009  RH  065%=      5-min Rain = 0
KPT1 160615Z 23007KT 06/M01 A3012 RMK A01 T00551010  RH  064%=      5-min Rain = 0
KPT1 160620Z 23007KT 06/M01 A3012 RMK A01 T00571010  RH  063%=      5-min Rain = 0
KPT1 160625Z 23007KT 06/M01 A3012 RMK A01 T00581009  RH  063%=      5-min Rain = 0
KPT1 160630Z 23008KT 06/M01 A3012 RMK A01 T00571009  RH  063%=      5-min Rain = 0
KPT1 160635Z 23008KT 06/M01 A3012 RMK A01 T00571008  RH  064%=      5-min Rain = 0
KPT1 160640Z 23008KT 06/M01 A3011 RMK A01 T00551008  RH  064%=      5-min Rain = 0
KPT1 160645Z 24008KT 05/M01 A3011 RMK A01 T00541008  RH  065%=      5-min Rain = 0
KPT1 160650Z 24009KT 05/M01 A3011 RMK A01 T00531006  RH  066%=      5-min Rain = 0
KPT1 160655Z 24010KT 05/M00 A3011 RMK A01 T00521004  RH  068%=      5-min Rain = 0
KPT1 160700Z 24010KT 05/M00 A3011 RMK A01 T00521003  RH  068%=      5-min Rain = 0
KPT1 160705Z 24011KT 05/M00 A3011 RMK A01 T00511003  RH  069%=      5-min Rain = 0
KPT1 160710Z 24011KT 05/M00 A3011 RMK A01 T00501003  RH  069%=      5-min Rain = 0
KPT1 160715Z 24010KT 05/M00 A3011 RMK A01 T00471003  RH  071%=      5-min Rain = 0
KPT1 160720Z 24010KT 05/M00 A3011 RMK A01 T00461002  RH  071%=      5-min Rain = 0
KPT1 160725Z 24010KT 05/M00 A3011 RMK A01 T00461002  RH  072%=      5-min Rain = 0
KPT1 160730Z 24009KT 05/M00 A3011 RMK A01 T00461002  RH  072%=      5-min Rain = 0
KPT1 160735Z 24009KT 05/M00 A3011 RMK A01 T00461003  RH  071%=      5-min Rain = 0
KPT1 160740Z 24009KT 05/M00 A3011 RMK A01 T00481004  RH  070%=      5-min Rain = 0
KPT1 160745Z 24009KT 05/M00 A3011 RMK A01 T00491004  RH  070%=      5-min Rain = 0
KPT1 160750Z 24010KT 05/M00 A3011 RMK A01 T00491003  RH  070%=      5-min Rain = 0
KPT1 160755Z 24011KT 05/M00 A3011 RMK A01 T00491003  RH  070%=      5-min Rain = 0
KPT1 160800Z 24011KT 05/M00 A3011 RMK A01 T00491002  RH  070%=      5-min Rain = 0
KPT1 160805Z 24011KT 05/M00 A3011 RMK A01 T00481001  RH  071%=      5-min Rain = 0
KPT1 160810Z 24011KT 05/M00 A301 RMK A01 T00491002  RH  070%=      5-min Rain = 0
KPT1 160815Z 24011KT 05/M00 A301 RMK A01 T00491002  RH  071%=      5-min Rain = 0
KPT1 160820Z 24011KT 05/M00 A301 RMK A01 T00481002  RH  071%=      5-min Rain = 0
KPT1 160825Z 24011KT 05/M00 A301 RMK A01 T00481002  RH  071%=      5-min Rain = 0
KPT1 160830Z 24011KT 05/M00 A301 RMK A01 T00471002  RH  071%=      5-min Rain = 0
KPT1 160835Z 24011KT 05/M00 A301 RMK A01 T00481002  RH  071%=      5-min Rain = 0
KPT1 160840Z 24011KT 05/M00 A301 RMK A01 T00471002  RH  071%=      5-min Rain = 0
KPT1 160845Z 24011KT 05/M00 A301 RMK A01 T00461002  RH  072%=      5-min Rain = 0
KPT1 160850Z 24011KT 05/M00 A3009 RMK A01 T00451002  RH  073%=      5-min Rain = 0
KPT1 160855Z 24011KT 05/M00 A3009 RMK A01 T00451002  RH  072%=      5-min Rain = 0
KPT1 160900Z 24012KT 05/M00 A3009 RMK A01 T00451003  RH  072%=      5-min Rain = 0
KPT1 160905Z 24012KT 05/M00 A3009 RMK A01 T00451003  RH  072%=      5-min Rain = 0
KPT1 160910Z 24012KT 05/M00 A3009 RMK A01 T00451004  RH  071%=      5-min Rain = 0
KPT1 160915Z 24011KT 05/M01 A3009 RMK A01 T00461005  RH  070%=      5-min Rain = 0
KPT1 160920Z 24011KT 05/M01 A3009 RMK A01 T00451006  RH  070%=      5-min Rain = 0
KPT1 160925Z 24011KT 05/M01 A3008 RMK A01 T00461006  RH  070%=      5-min Rain = 0
KPT1 160930Z 24011KT 05/M01 A3008 RMK A01 T00451007  RH  070%=      5-min Rain = 0
KPT1 160935Z 24012KT 05/M01 A3008 RMK A01 T00461007  RH  069%=      5-min Rain = 0
KPT1 160940Z 24012KT 05/M01 A3008 RMK A01 T00451008  RH  069%=      5-min Rain = 0
KPT1 160945Z 24011KT 05/M01 A3008 RMK A01 T00451008  RH  069%=      5-min Rain = 0
KPT1 160950Z 24012KT 05/M01 A3008 RMK A01 T00451009  RH  069%=      5-min Rain = 0
KPT1 160955Z 24012KT 05/M01 A3008 RMK A01 T00451010  RH  068%=      5-min Rain = 0
KPT1 161000Z 24013KT 05/M01 A3007 RMK A01 T00461011  RH  068%=      5-min Rain = 0
KPT1 161005Z 24013KT 05/M01 A3007 RMK A01 T00461011  RH  067%=      5-min Rain = 0
KPT1 161010Z 24013KT 05/M01 A3007 RMK A01 T00461011  RH  067%=      5-min Rain = 0
KPT1 161015Z 24013G18KT 05/M01 A3007 RMK A01 T00471012  RH  067%=      5-min Rain = 0
KPT1 161020Z 24012KT 05/M01 A3007 RMK A01 T00451011  RH  068%=      5-min Rain = 0
KPT1 161025Z 24011KT 04/M01 A3007 RMK A01 T00431011  RH  069%=      5-min Rain = 0
KPT1 161030Z 24013KT 04/M01 A3007 RMK A01 T00441012  RH  068%=      5-min Rain = 0
KPT1 161035Z 24013KT 05/M01 A3007 RMK A01 T00461013  RH  066%=      5-min Rain = 0
KPT1 161040Z 24013KT 05/M01 A3007 RMK A01 T00461013  RH  066%=      5-min Rain = 0
KPT1 161045Z 24014KT 05/M01 A3006 RMK A01 T00461014  RH  066%=      5-min Rain = 0
KPT1 161050Z 24014KT 05/M01 A3007 RMK A01 T00451014  RH  066%=      5-min Rain = 0
KPT1 161055Z 24014KT 05/M01 A3006 RMK A01 T00451014  RH  066%=      5-min Rain = 0
KPT1 161100Z 24013G18KT 05/M02 A3006 RMK A01 T00461015  RH  065%=      5-min Rain = 0
KPT1 161105Z 24013KT 05/M02 A3006 RMK A01 T00461016  RH  065%=      5-min Rain = 0
KPT1 161110Z 24013KT 05/M02 A3006 RMK A01 T00451016  RH  065%=      5-min Rain = 0
KPT1 161115Z 24013KT 04/M02 A3006 RMK A01 T00441016  RH  066%=      5-min Rain = 0
KPT1 161120Z 24013KT 04/M02 A3006 RMK A01 T00441016  RH  066%=      5-min Rain = 0
KPT1 161125Z 25013KT 04/M02 A3006 RMK A01 T00441017  RH  065%=      5-min Rain = 0
KPT1 161130Z 25014KT 04/M02 A3006 RMK A01 T00441017  RH  065%=      5-min Rain = 0
KPT1 161135Z 25013G18KT 04/M02 A3006 RMK A01 T00441018  RH  065%=      5-min Rain = 0
KPT1 161140Z 24013KT 04/M02 A3006 RMK A01 T00441019  RH  065%=      5-min Rain = 0
KPT1 161145Z 25013KT 04/M02 A3006 RMK A01 T00431019  RH  065%=      5-min Rain = 0
KPT1 161150Z 24013KT 04/M02 A3006 RMK A01 T00411019  RH  066%=      5-min Rain = 0
KPT1 161155Z 24013KT 04/M02 A3006 RMK A01 T00411019  RH  066%=      5-min Rain = 0
KPT1 161200Z 24013KT 04/M02 A3006 RMK A01 T00401019  RH  066%=      5-min Rain = 0
KPT1 161205Z 24013KT 04/M02 A3006 RMK A01 T00401020  RH  066%=      5-min Rain = 0
KPT1 161210Z 24012G17KT 04/M02 A3006 RMK A01 T00401020  RH  066%=      5-min Rain = 0
KPT1 161215Z 24013KT 04/M02 A3006 RMK A01 T00421021  RH  064%=      5-min Rain = 0
KPT1 161220Z 24012KT 04/M02 A3006 RMK A01 T00421021  RH  064%=      5-min Rain = 0
KPT1 161225Z 24012KT 04/M02 A3006 RMK A01 T00431021  RH  064%=      5-min Rain = 0
KPT1 161230Z 24012KT 04/M02 A3006 RMK A01 T00431021  RH  064%=      5-min Rain = 0
KPT1 161235Z 24013KT 04/M02 A3005 RMK A01 T00431021  RH  064%=      5-min Rain = 0
KPT1 161240Z 24014KT 04/M02 A3005 RMK A01 T00431021  RH  064%=      5-min Rain = 0
KPT1 161245Z 24014G19KT 04/M02 A3005 RMK A01 T00431022  RH  064%=      5-min Rain = 0
KPT1 161250Z 24015KT 04/M02 A3005 RMK A01 T00431022  RH  063%=      5-min Rain = 0
KPT1 161255Z 24013G18KT 04/M02 A3005 RMK A01 T00411022  RH  064%=      5-min Rain = 0
KPT1 161300Z 24013KT 04/M02 A3005 RMK A01 T00401021  RH  065%=      5-min Rain = 0
KPT1 161305Z 25012KT 04/M02 A3005 RMK A01 T00401022  RH  065%=      5-min Rain = 0
KPT1 161310Z 25012G18KT 04/M02 A3005 RMK A01 T00411022  RH  064%=      5-min Rain = 0
KPT1 161315Z 24013KT 04/M02 A3005 RMK A01 T00401022  RH  065%=      5-min Rain = 0
KPT1 161320Z 24013KT 04/M02 A3005 RMK A01 T00401022  RH  064%=      5-min Rain = 0
KPT1 161325Z 24014KT 04/M02 A3005 RMK A01 T00401023  RH  065%=      5-min Rain = 0
KPT1 161330Z 24015KT 04/M02 A3005 RMK A01 T00391023  RH  064%=      5-min Rain = 0
KPT1 161335Z 24014KT 04/M02 A3006 RMK A01 T00381022  RH  066%=      5-min Rain = 0
KPT1 161340Z 24013KT 04/M02 A3006 RMK A01 T00381022  RH  066%=      5-min Rain = 0
KPT1 161345Z 24014KT 04/M02 A3006 RMK A01 T00391022  RH  065%=      5-min Rain = 0
KPT1 161350Z 24014KT 04/M02 A3006 RMK A01 T00381022  RH  065%=      5-min Rain = 0
KPT1 161355Z 24013KT 04/M02 A3006 RMK A01 T00371022  RH  066%=      5-min Rain = 0
KPT1 161400Z 24012KT 04/M02 A3006 RMK A01 T00361021  RH  067%=      5-min Rain = 0
KPT1 161405Z 25012KT 04/M02 A3006 RMK A01 T00391021  RH  066%=      5-min Rain = 0
KPT1 161410Z 25013KT 04/M02 A3006 RMK A01 T00401021  RH  065%=      5-min Rain = 0
KPT1 161415Z 24013KT 04/M02 A3006 RMK A01 T00441021  RH  064%=      5-min Rain = 0
KPT1 161420Z 24013KT 05/M02 A3006 RMK A01 T00461020  RH  063%=      5-min Rain = 0
KPT1 161425Z 24011KT 05/M02 A3006 RMK A01 T00471020  RH  063%=      5-min Rain = 0
KPT1 161430Z 25012G17KT 05/M02 A3006 RMK A01 T00481019  RH  062%=      5-min Rain = 0
KPT1 161435Z 24013KT 05/M02 A3006 RMK A01 T00511019  RH  061%=      5-min Rain = 0
KPT1 161440Z 24012KT 05/M02 A3006 RMK A01 T00541018  RH  061%=      5-min Rain = 0
KPT1 161445Z 24011KT 06/M02 A3006 RMK A01 T00571016  RH  060%=      5-min Rain = 0
KPT1 161450Z 24011KT 06/M01 A3006 RMK A01 T00631014  RH  058%=      5-min Rain = 0
KPT1 161455Z 24012KT 07/M01 A3006 RMK A01 T00691014  RH  056%=      5-min Rain = 0
KPT1 161500Z 24015G21KT 07/M02 A3006 RMK A01 T00721016  RH  054%=      5-min Rain = 0
KPT1 161505Z 24014G19KT 08/M02 A3006 RMK A01 T00751015  RH  053%=      5-min Rain = 0
KPT1 161510Z 24014G19KT 08/M02 A3006 RMK A01 T00781015  RH  053%=      5-min Rain = 0
KPT1 161515Z 24013KT 08/M01 A3006 RMK A01 T00811013  RH  052%=      5-min Rain = 0
KPT1 161520Z 24013G20KT 09/M01 A3006 RMK A01 T00851011  RH  051%=      5-min Rain = 0
KPT1 161525Z 24014KT 09/M01 A3006 RMK A01 T00871011  RH  051%=      5-min Rain = 0
KPT1 161530Z 24015G20KT 09/M01 A3006 RMK A01 T00901012  RH  049%=      5-min Rain = 0
KPT1 161535Z 24013KT 09/M01 A3006 RMK A01 T00911012  RH  049%=      5-min Rain = 0
KPT1 161540Z 24012G17KT 09/M01 A3005 RMK A01 T00941010  RH  049%=      5-min Rain = 0
KPT1 161545Z 24013G19KT 10/M01 A3005 RMK A01 T01021008  RH  047%=      5-min Rain = 0
KPT1 161550Z 24013KT 10/M01 A3005 RMK A01 T01031009  RH  046%=      5-min Rain = 0
KPT1 161555Z 23014G21KT 10/M01 A3005 RMK A01 T01041014  RH  044%=      5-min Rain = 0
KPT1 161600Z 23013KT 11/M01 A3005 RMK A01 T01101011  RH  043%=      5-min Rain = 0
KPT1 161605Z 23013KT 11/M01 A3005 RMK A01 T01121012  RH  043%=      5-min Rain = 0
KPT1 161610Z 23012G18KT 11/M01 A3005 RMK A01 T01121011  RH  043%=      5-min Rain = 0
KPT1 161615Z 23012KT 11/M01 A3005 RMK A01 T01051010  RH  045%=      5-min Rain = 0
KPT1 161620Z 23012KT 10/M01 A3005 RMK A01 T01021011  RH  046%=      5-min Rain = 0
KPT1 161625Z 23010KT 10/M01 A3004 RMK A01 T01031009  RH  046%=      5-min Rain = 0
KPT1 161630Z 22010KT 11/M01 A3004 RMK A01 T01071007  RH  045%=      5-min Rain = 0
KPT1 161635Z 22010KT 11/M01 A3004 RMK A01 T01111008  RH  044%=      5-min Rain = 0
KPT1 161640Z 22011G17KT 11/M01 A3004 RMK A01 T01101011  RH  043%=      5-min Rain = 0
KPT1 161645Z 23010G16KT 12/M01 A3004 RMK A01 T01151008  RH  043%=      5-min Rain = 0
KPT1 161650Z 23011KT 13/M00 A3004 RMK A01 T01251004  RH  041%=      5-min Rain = 0
KPT1 161655Z 23013G18KT 14/M01 A3004 RMK A01 T01351008  RH  038%=      5-min Rain = 0
KPT1 161700Z 23014G19KT 13/M02 A3003 RMK A01 T01321020  RH  035%=      5-min Rain = 0
KPT1 161705Z 24012G18KT 13/M02 A3004 RMK A01 T01341015  RH  036%=      5-min Rain = 0
KPT1 161710Z 24013G19KT 14/M01 A3003 RMK A01 T01371014  RH  036%=      5-min Rain = 0
KPT1 161715Z 23014KT 14/M01 A3003 RMK A01 T01401012  RH  035%=      5-min Rain = 0
KPT1 161720Z 23012G18KT 14/M01 A3003 RMK A01 T01421009  RH  036%=      5-min Rain = 0
KPT1 161725Z 22011G17KT 15/M01 A3003 RMK A01 T01491009  RH  034%=      5-min Rain = 0
KPT1 161730Z 22012KT 15/M01 A3003 RMK A01 T01531010  RH  033%=      5-min Rain = 0
KPT1 161735Z 21014G19KT 15/M02 A3003 RMK A01 T01511020  RH  031%=      5-min Rain = 0
KPT1 161740Z 22013G21KT 14/M02 A3003 RMK A01 T01431023  RH  032%=      5-min Rain = 0
KPT1 161745Z 22014G19KT 14/M02 A3003 RMK A01 T01441024  RH  032%=      5-min Rain = 0
KPT1 161750Z 22014G19KT 14/M02 A3003 RMK A01 T01411021  RH  033%=      5-min Rain = 0
KPT1 161755Z 22011G17KT 14/M02 A3003 RMK A01 T01411020  RH  033%=      5-min Rain = 0
KPT1 161800Z 22012G17KT 14/M02 A3003 RMK A01 T01401017  RH  034%=      5-min Rain = 0
KPT1 161805Z 21012KT 15/M01 A3003 RMK A01 T01491014  RH  033%=      5-min Rain = 0
KPT1 161810Z 22014G20KT 14/M02 A3002 RMK A01 T01441023  RH  032%=      5-min Rain = 0
KPT1 161815Z 21011G16KT 14/M02 A3002 RMK A01 T01391020  RH  034%=      5-min Rain = 0
KPT1 161820Z 21011G16KT 14/M02 A3002 RMK A01 T01381019  RH  034%=      5-min Rain = 0
KPT1 161825Z 21012KT 14/M02 A3001 RMK A01 T01401017  RH  034%=      5-min Rain = 0
KPT1 161830Z 22012KT 14/M01 A3001 RMK A01 T01411013  RH  035%=      5-min Rain = 0
KPT1 161835Z 22011G16KT 14/M01 A3001 RMK A01 T01431007  RH  036%=      5-min Rain = 0
KPT1 161840Z 21011KT 14/M01 A3001 RMK A01 T01441005  RH  036%=      5-min Rain = 0
KPT1 161845Z 22011KT 14/M01 A3001 RMK A01 T01411006  RH  037%=      5-min Rain = 0
KPT1 161850Z 22008KT 15/00 A30 RMK A01 T01490001  RH  037%=      5-min Rain = 0
KPT1 161855Z 23012KT 15/M00 A30 RMK A01 T01541003  RH  035%=      5-min Rain = 0
KPT1 161900Z 22010KT 15/M00 A30 RMK A01 T01541003  RH  035%=      5-min Rain = 0
KPT1 161905Z 22009KT 16/M00 A2999 RMK A01 T01551002  RH  035%=      5-min Rain = 0
KPT1 161910Z 21008KT 16/M00 A2999 RMK A01 T01571002  RH  034%=      5-min Rain = 0
KPT1 161915Z 20011G16KT 16/M01 A2998 RMK A01 T01621008  RH  032%=      5-min Rain = 0
KPT1 161920Z 22011KT 16/M02 A2998 RMK A01 T01601017  RH  030%=      5-min Rain = 0
KPT1 161925Z 21011KT 16/M02 A2998 RMK A01 T01591023  RH  029%=      5-min Rain = 0
KPT1 161930Z 21011G16KT 16/M03 A2997 RMK A01 T01551029  RH  028%=      5-min Rain = 0
KPT1 161935Z 21012KT 15/M03 A2997 RMK A01 T01521027  RH  029%=      5-min Rain = 0
KPT1 161940Z 21010G15KT 15/M02 A2997 RMK A01 T01531017  RH  031%=      5-min Rain = 0
KPT1 161945Z 20012KT 15/M01 A2997 RMK A01 T01531012  RH  033%=      5-min Rain = 0
KPT1 161950Z 21011G16KT 15/M01 A2996 RMK A01 T01531009  RH  033%=      5-min Rain = 0
KPT1 161955Z 21011G16KT 15/M01 A2996 RMK A01 T01531010  RH  033%=      5-min Rain = 0
KPT1 162000Z 21011KT 15/M01 A2996 RMK A01 T01531007  RH  034%=      5-min Rain = 0
KPT1 162005Z 21012G17KT 15/M01 A2996 RMK A01 T01541010  RH  033%=      5-min Rain = 0
KPT1 162010Z 21011G16KT 16/M01 A2996 RMK A01 T01581013  RH  031%=      5-min Rain = 0
KPT1 162015Z 21013G18KT 17/M02 A2995 RMK A01 T01701019  RH  028%=      5-min Rain = 0
KPT1 162020Z 22013G21KT 17/M03 A2995 RMK A01 T01741027  RH  026%=      5-min Rain = 0
KPT1 162025Z 22011KT 18/M03 A2995 RMK A01 T01751025  RH  026%=      5-min Rain = 0
KPT1 162030Z 21012G18KT 18/M02 A2995 RMK A01 T01781024  RH  025%=      5-min Rain = 0
KPT1 162035Z 21011G20KT 18/M02 A2994 RMK A01 T01841019  RH  025%=      5-min Rain = 0
KPT1 162040Z 22011G16KT 19/M02 A2994 RMK A01 T01851015  RH  026%=      5-min Rain = 0
KPT1 162045Z 21011G16KT 18/M01 A2994 RMK A01 T01821014  RH  027%=      5-min Rain = 0
KPT1 162050Z 22014KT 18/M01 A2994 RMK A01 T01821011  RH  027%=      5-min Rain = 0
KPT1 162055Z 23014G20KT 18/M01 A2994 RMK A01 T01811009  RH  028%=      5-min Rain = 0
KPT1 162100Z 21011KT 18/M01 A2994 RMK A01 T01841012  RH  027%=      5-min Rain = 0
KPT1 162105Z 22012G19KT 18/M01 A2994 RMK A01 T01761012  RH  028%=      5-min Rain = 0
KPT1 162110Z 21010G15KT 17/M01 A2993 RMK A01 T01701012  RH  029%=      5-min Rain = 0
KPT1 162115Z 21011KT 18/M01 A2993 RMK A01 T01831014  RH  026%=      5-min Rain = 0
KPT1 162120Z 21009G15KT 18/M01 A2993 RMK A01 T01811012  RH  027%=      5-min Rain = 0
KPT1 162125Z 21012KT 19/M02 A2993 RMK A01 T01851016  RH  026%=      5-min Rain = 0
KPT1 162130Z 21010G15KT 18/M02 A2993 RMK A01 T01811017  RH  026%=      5-min Rain = 0
KPT1 162135Z 21011KT 18/M02 A2992 RMK A01 T01781019  RH  026%=      5-min Rain = 0
KPT1 162140Z 21011G16KT 18/M02 A2992 RMK A01 T01831018  RH  026%=      5-min Rain = 0
KPT1 162145Z 23009G15KT 18/M02 A2992 RMK A01 T01811019  RH  026%=      5-min Rain = 0
KPT1 162150Z 21011KT 18/M02 A2992 RMK A01 T01821017  RH  026%=      5-min Rain = 0
KPT1 162155Z 22014KT 18/M02 A2992 RMK A01 T01771019  RH  027%=      5-min Rain = 0
KPT1 162200Z 21012G17KT 18/M02 A2992 RMK A01 T01771019  RH  027%=      5-min Rain = 0
KPT1 162205Z 22014G20KT 17/M01 A2992 RMK A01 T01741010  RH  029%=      5-min Rain = 0
KPT1 162210Z 21014G19KT 17/M01 A2992 RMK A01 T01701011  RH  029%=      5-min Rain = 0
KPT1 162215Z 20011G16KT 17/M01 A2992 RMK A01 T01681013  RH  030%=      5-min Rain = 0
KPT1 162220Z 21011KT 17/M02 A2992 RMK A01 T01671022  RH  028%=      5-min Rain = 0
KPT1 162225Z 21010G17KT 17/M02 A2992 RMK A01 T01701020  RH  028%=      5-min Rain = 0
KPT1 162230Z 21009KT 17/M02 A2992 RMK A01 T01721019  RH  027%=      5-min Rain = 0
KPT1 162235Z 21010KT 18/M02 A2992 RMK A01 T01751022  RH  026%=      5-min Rain = 0
KPT1 162240Z 21011KT 18/M03 A2992 RMK A01 T01751026  RH  026%=      5-min Rain = 0
KPT1 162245Z 22011KT 18/M02 A2991 RMK A01 T01751021  RH  027%=      5-min Rain = 0
KPT1 162250Z 22010KT 17/M02 A2991 RMK A01 T01741019  RH  027%=      5-min Rain = 0
KPT1 162255Z 21010KT 17/M02 A2991 RMK A01 T01731017  RH  028%=      5-min Rain = 0
KPT1 162300Z 20011KT 17/M02 A2991 RMK A01 T01731018  RH  027%=      5-min Rain = 0
KPT1 162305Z 21011G16KT 17/M02 A2991 RMK A01 T01721017  RH  028%=      5-min Rain = 0
KPT1 162310Z 21009G14KT 17/M02 A2991 RMK A01 T01691016  RH  029%=      5-min Rain = 0
KPT1 162315Z 20006KT 17/M01 A2991 RMK A01 T01711012  RH  029%=      5-min Rain = 0
KPT1 162320Z 19008KT 17/M01 A2991 RMK A01 T01731010  RH  029%=      5-min Rain = 0
KPT1 162325Z 20010KT 17/M02 A2991 RMK A01 T01691018  RH  028%=      5-min Rain = 0
KPT1 162330Z 19011KT 16/M02 A2991 RMK A01 T01641020  RH  028%=      5-min Rain = 0
KPT1 162335Z 19009KT 16/M02 A2991 RMK A01 T01611018  RH  030%=      5-min Rain = 0
KPT1 162340Z 19009G14KT 16/M02 A2991 RMK A01 T01571016  RH  031%=      5-min Rain = 0
KPT1 162345Z 19010KT 15/M02 A2991 RMK A01 T01541017  RH  031%=      5-min Rain = 0
KPT1 162350Z 19009KT 15/M02 A2991 RMK A01 T01521015  RH  032%=      5-min Rain = 0
KPT1 162355Z 19009KT 15/M02 A299 RMK A01 T01501015  RH  032%=      5-min Rain = 0
KPT1 170000Z 19009KT 15/M02 A299 RMK A01 T01491016  RH  033%=      5-min Rain = 0
KPT1 170005Z 19009KT 15/M02 A299 RMK A01 T01471015  RH  033%=      5-min Rain = 0
KPT1 170010Z 19008KT 15/M02 A299 RMK A01 T01451015  RH  033%=      5-min Rain = 0
KPT1 170015Z 19008KT 14/M01 A299 RMK A01 T01441014  RH  034%=      5-min Rain = 0
KPT1 170020Z 20007KT 14/M01 A299 RMK A01 T01421013  RH  035%=      5-min Rain = 0
KPT1 170025Z 20007KT 14/M01 A299 RMK A01 T01381011  RH  036%=      5-min Rain = 0
KPT1 170030Z 19007KT 14/M01 A299 RMK A01 T01351012  RH  037%=      5-min Rain = 0
KPT1 170035Z 20007KT 13/M01 A299 RMK A01 T01341012  RH  037%=      5-min Rain = 0
KPT1 170040Z 20007KT 13/M01 A299 RMK A01 T01321012  RH  037%=      5-min Rain = 0
KPT1 170045Z 20008KT 13/M01 A299 RMK A01 T01291011  RH  038%=      5-min Rain = 0
KPT1 170050Z 20007KT 13/M01 A299 RMK A01 T01271012  RH  039%=      5-min Rain = 0
KPT1 170055Z 20007KT 13/M01 A299 RMK A01 T01251012  RH  039%=      5-min Rain = 0
KPT1 170100Z 20006KT 12/M01 A299 RMK A01 T01221012  RH  040%=      5-min Rain = 0
KPT1 170105Z 20005KT 12/M01 A299 RMK A01 T01201011  RH  041%=      5-min Rain = 0
KPT1 170110Z 20005KT 12/M01 A299 RMK A01 T01181012  RH  041%=      5-min Rain = 0
KPT1 170115Z 19006KT 12/M01 A299 RMK A01 T01161012  RH  041%=      5-min Rain = 0
KPT1 170120Z 20006KT 12/M01 A299 RMK A01 T01171012  RH  041%=      5-min Rain = 0
KPT1 170125Z 21006KT 11/M01 A299 RMK A01 T01141011  RH  042%=      5-min Rain = 0
KPT1 170130Z 21006KT 11/M01 A299 RMK A01 T01131010  RH  043%=      5-min Rain = 0
KPT1 170135Z 21006KT 11/M01 A299 RMK A01 T01121010  RH  043%=      5-min Rain = 0
KPT1 170140Z 21007KT 11/M01 A299 RMK A01 T01091009  RH  044%=      5-min Rain = 0
KPT1 170145Z 21008KT 11/M01 A2989 RMK A01 T01101008  RH  045%=      5-min Rain = 0
KPT1 170150Z 20008KT 11/M01 A2989 RMK A01 T01101008  RH  044%=      5-min Rain = 0
KPT1 170155Z 20008KT 11/M01 A2989 RMK A01 T01101007  RH  045%=      5-min Rain = 0
KPT1 170200Z 20007KT 11/M01 A2989 RMK A01 T01091007  RH  045%=      5-min Rain = 0
KPT1 170205Z 20007KT 11/M01 A2989 RMK A01 T01071007  RH  046%=      5-min Rain = 0
KPT1 170210Z 20007KT 10/M01 A2989 RMK A01 T01041008  RH  046%=      5-min Rain = 0
KPT1 170215Z 20006KT 10/M01 A2989 RMK A01 T01021007  RH  047%=      5-min Rain = 0
KPT1 170220Z 20007KT 10/M01 A2989 RMK A01 T01011008  RH  047%=      5-min Rain = 0
KPT1 170225Z 20006KT 10/M01 A2989 RMK A01 T01021009  RH  047%=      5-min Rain = 0
KPT1 170230Z 20006KT 10/M01 A2989 RMK A01 T01021009  RH  046%=      5-min Rain = 0
KPT1 170235Z 20006KT 10/M01 A2989 RMK A01 T01011010  RH  046%=      5-min Rain = 0
KPT1 170240Z 21006KT 10/M01 A2989 RMK A01 T01001011  RH  046%=      5-min Rain = 0
KPT1 170245Z 21006KT 10/M01 A2989 RMK A01 T01001011  RH  046%=      5-min Rain = 0
KPT1 170250Z 20007KT 10/M01 A2989 RMK A01 T01001012  RH  046%=      5-min Rain = 0
KPT1 170255Z 21007KT 10/M01 A2989 RMK A01 T01021013  RH  045%=      5-min Rain = 0
KPT1 170300Z 21007KT 10/M01 A2989 RMK A01 T01041013  RH  045%=      5-min Rain = 0
KPT1 170305Z 21007KT 10/M01 A2989 RMK A01 T01041012  RH  045%=      5-min Rain = 0
KPT1 170310Z 22008KT 10/M01 A2989 RMK A01 T01021011  RH  046%=      5-min Rain = 0
KPT1 170315Z 22008KT 10/M01 A2989 RMK A01 T01021010  RH  046%=      5-min Rain = 0
KPT1 170320Z 21008KT 10/M01 A2989 RMK A01 T01031011  RH  046%=      5-min Rain = 0
KPT1 170325Z 21009KT 10/M01 A2989 RMK A01 T01041012  RH  045%=      5-min Rain = 0
KPT1 170330Z 21008KT 11/M01 A2989 RMK A01 T01051014  RH  044%=      5-min Rain = 0
KPT1 170335Z 21009KT 11/M01 A2989 RMK A01 T01051014  RH  044%=      5-min Rain = 0
KPT1 170340Z 20009KT 11/M02 A2989 RMK A01 T01051016  RH  043%=      5-min Rain = 0
KPT1 170345Z 19008KT 11/M02 A2989 RMK A01 T01101018  RH  041%=      5-min Rain = 0
KPT1 170350Z 19006KT 11/M02 A2989 RMK A01 T01071017  RH  042%=      5-min Rain = 0
KPT1 170355Z 19006KT 11/M02 A2989 RMK A01 T01061018  RH  042%=      5-min Rain = 0
KPT1 170400Z 19007KT 11/M02 A2989 RMK A01 T01061018  RH  042%=      5-min Rain = 0
KPT1 170405Z 20007KT 10/M02 A2989 RMK A01 T01031016  RH  044%=      5-min Rain = 0
KPT1 170410Z 20007KT 10/M02 A2989 RMK A01 T01001016  RH  045%=      5-min Rain = 0
KPT1 170415Z 20007KT 10/M02 A2989 RMK A01 T01031015  RH  044%=      5-min Rain = 0
KPT1 170420Z 21007KT 10/M01 A2988 RMK A01 T01011013  RH  045%=      5-min Rain = 0
KPT1 170425Z 21007KT 10/M01 A2988 RMK A01 T01001012  RH  046%=      5-min Rain = 0
KPT1 170430Z 21008KT 10/M01 A2988 RMK A01 T01001010  RH  047%=      5-min Rain = 0
KPT1 170435Z 21009KT 10/M01 A2988 RMK A01 T01021009  RH  047%=      5-min Rain = 0
KPT1 170440Z 21009KT 10/M01 A2988 RMK A01 T01031008  RH  047%=      5-min Rain = 0
KPT1 170445Z 20011KT 11/M01 A2988 RMK A01 T01071007  RH  046%=      5-min Rain = 0
KPT1 170450Z 20011G16KT 11/M01 A2988 RMK A01 T01091006  RH  045%=      5-min Rain = 0
KPT1 170455Z 20010KT 11/M01 A2988 RMK A01 T01091006  RH  046%=      5-min Rain = 0
KPT1 170500Z 20010KT 11/M01 A2988 RMK A01 T01071005  RH  046%=      5-min Rain = 0
KPT1 170505Z 20010KT 11/M01 A2988 RMK A01 T01081005  RH  046%=      5-min Rain = 0
KPT1 170510Z 20011KT 11/M00 A2987 RMK A01 T01071004  RH  047%=      5-min Rain = 0
KPT1 170515Z 20010KT 11/M00 A2988 RMK A01 T01061003  RH  047%=      5-min Rain = 0
KPT1 170520Z 19011G16KT 11/M00 A2988 RMK A01 T01051002  RH  048%=      5-min Rain = 0
KPT1 170525Z 20010KT 10/00 A2988 RMK A01 T010400-0  RH  049%=      5-min Rain = 0
KPT1 170530Z 20011G16KT 10/00 A2987 RMK A01 T01040000  RH  049%=      5-min Rain = 0
KPT1 170535Z 20010KT 10/00 A2987 RMK A01 T01030001  RH  050%=      5-min Rain = 0
KPT1 170540Z 20010KT 10/00 A2987 RMK A01 T01000002  RH  051%=      5-min Rain = 0
KPT1 170545Z 20010KT 10/00 A2987 RMK A01 T00980003  RH  052%=      5-min Rain = 0
KPT1 170550Z 20010KT 10/00 A2987 RMK A01 T00990003  RH  052%=      5-min Rain = 0
KPT1 170555Z 20011G16KT 10/00 A2987 RMK A01 T00990003  RH  052%=      5-min Rain = 0

Page generated in 0.0097 seconds.